sensor_id;sensor_type;location;lat;lon;timestamp;temperature;humidity
13496;DHT22;6820;49.374;8.452;2024-03-07T00:00:42;8.24;99.99
13496;DHT22;6820;49.374;8.452;2024-03-07T00:04:44;8.14;99.99
13496;DHT22;6820;49.374;8.452;2024-03-07T00:08:46;8.12;99.99
13496;DHT22;6820;49.374;8.452;2024-03-07T00:12:48;8.09;99.99
13496;DHT22;6820;49.374;8.452;2024-03-07T00:16:50;8.10;99.99
13496;DHT22;6820;49.374;8.452;2024-03-07T00:20:51;8.12;99.99
13496;DHT22;6820;49.374;8.452;2024-03-07T00:24:54;8.12;99.99
13496;DHT22;6820;49.374;8.452;2024-03-07T00:28:55;8.09;99.99
13496;DHT22;6820;49.374;8.452;2024-03-07T00:32:57;8.09;99.99
13496;DHT22;6820;49.374;8.452;2024-03-07T00:36:59;8.09;99.99
13496;DHT22;6820;49.374;8.452;2024-03-07T00:41:01;8.07;99.99
13496;DHT22;6820;49.374;8.452;2024-03-07T00:45:03;8.00;99.99
13496;DHT22;6820;49.374;8.452;2024-03-07T00:49:05;7.95;99.99
13496;DHT22;6820;49.374;8.452;2024-03-07T00:53:07;7.94;99.99
13496;DHT22;6820;49.374;8.452;2024-03-07T00:57:08;7.94;99.99
13496;DHT22;6820;49.374;8.452;2024-03-07T01:01:10;7.91;99.99
13496;DHT22;6820;49.374;8.452;2024-03-07T01:05:13;7.96;99.99
13496;DHT22;6820;49.374;8.452;2024-03-07T01:09:15;8.00;99.99
13496;DHT22;6820;49.374;8.452;2024-03-07T01:13:20;8.03;99.99
13496;DHT22;6820;49.374;8.452;2024-03-07T01:17:23;8.06;99.99
13496;DHT22;6820;49.374;8.452;2024-03-07T01:21:25;8.07;99.99
13496;DHT22;6820;49.374;8.452;2024-03-07T01:25:27;8.09;99.99
13496;DHT22;6820;49.374;8.452;2024-03-07T01:29:28;8.10;99.99
13496;DHT22;6820;49.374;8.452;2024-03-07T01:33:30;8.10;99.99
13496;DHT22;6820;49.374;8.452;2024-03-07T01:37:32;8.10;99.99
13496;DHT22;6820;49.374;8.452;2024-03-07T01:41:34;8.10;99.99
13496;DHT22;6820;49.374;8.452;2024-03-07T01:45:36;8.06;99.99
13496;DHT22;6820;49.374;8.452;2024-03-07T01:49:39;8.06;99.99
13496;DHT22;6820;49.374;8.452;2024-03-07T01:53:40;8.06;99.99
13496;DHT22;6820;49.374;8.452;2024-03-07T01:57:42;8.04;99.99
13496;DHT22;6820;49.374;8.452;2024-03-07T02:01:44;8.04;99.99
13496;DHT22;6820;49.374;8.452;2024-03-07T02:05:48;8.06;99.99
13496;DHT22;6820;49.374;8.452;2024-03-07T02:09:50;8.06;99.99
13496;DHT22;6820;49.374;8.452;2024-03-07T02:13:59;8.07;99.99
13496;DHT22;6820;49.374;8.452;2024-03-07T02:18:01;8.09;99.99
13496;DHT22;6820;49.374;8.452;2024-03-07T02:22:03;8.07;99.99
13496;DHT22;6820;49.374;8.452;2024-03-07T02:26:04;8.04;99.99
13496;DHT22;6820;49.374;8.452;2024-03-07T02:30:06;8.03;99.99
13496;DHT22;6820;49.374;8.452;2024-03-07T02:34:10;8.02;99.99
13496;DHT22;6820;49.374;8.452;2024-03-07T02:38:12;7.99;99.99
13496;DHT22;6820;49.374;8.452;2024-03-07T02:42:13;7.94;99.99
13496;DHT22;6820;49.374;8.452;2024-03-07T02:46:15;7.89;99.99
13496;DHT22;6820;49.374;8.452;2024-03-07T02:50:17;7.84;99.99
13496;DHT22;6820;49.374;8.452;2024-03-07T02:54:19;7.76;99.99
13496;DHT22;6820;49.374;8.452;2024-03-07T02:58:21;7.66;99.99
13496;DHT22;6820;49.374;8.452;2024-03-07T03:02:22;7.58;99.99
13496;DHT22;6820;49.374;8.452;2024-03-07T03:06:24;7.48;99.99
13496;DHT22;6820;49.374;8.452;2024-03-07T03:10:26;7.41;99.99
13496;DHT22;6820;49.374;8.452;2024-03-07T03:14:31;7.36;99.99
13496;DHT22;6820;49.374;8.452;2024-03-07T03:18:33;7.30;99.99
13496;DHT22;6820;49.374;8.452;2024-03-07T03:22:38;7.24;99.99
13496;DHT22;6820;49.374;8.452;2024-03-07T03:26:40;7.14;99.99
13496;DHT22;6820;49.374;8.452;2024-03-07T03:30:43;7.09;99.99
13496;DHT22;6820;49.374;8.452;2024-03-07T03:34:46;7.01;99.99
13496;DHT22;6820;49.374;8.452;2024-03-07T03:38:47;6.93;99.99
13496;DHT22;6820;49.374;8.452;2024-03-07T03:42:49;6.93;99.99
13496;DHT22;6820;49.374;8.452;2024-03-07T03:46:51;6.87;99.99
13496;DHT22;6820;49.374;8.452;2024-03-07T03:50:53;6.81;99.99
13496;DHT22;6820;49.374;8.452;2024-03-07T03:54:56;6.75;99.99
13496;DHT22;6820;49.374;8.452;2024-03-07T03:58:58;6.69;99.99
13496;DHT22;6820;49.374;8.452;2024-03-07T04:03:00;6.65;99.99
13496;DHT22;6820;49.374;8.452;2024-03-07T04:07:01;6.61;99.99
13496;DHT22;6820;49.374;8.452;2024-03-07T04:11:04;6.58;99.99
13496;DHT22;6820;49.374;8.452;2024-03-07T04:15:07;6.50;99.99
13496;DHT22;6820;49.374;8.452;2024-03-07T04:19:10;6.39;99.99
13496;DHT22;6820;49.374;8.452;2024-03-07T04:23:12;6.27;99.99
13496;DHT22;6820;49.374;8.452;2024-03-07T04:27:13;6.27;99.99
13496;DHT22;6820;49.374;8.452;2024-03-07T04:31:15;6.27;99.99
13496;DHT22;6820;49.374;8.452;2024-03-07T04:35:18;6.30;99.99
13496;DHT22;6820;49.374;8.452;2024-03-07T04:39:20;6.30;99.99
13496;DHT22;6820;49.374;8.452;2024-03-07T04:43:34;6.25;99.99
13496;DHT22;6820;49.374;8.452;2024-03-07T04:47:36;6.21;99.99
13496;DHT22;6820;49.374;8.452;2024-03-07T04:51:38;6.19;99.99
13496;DHT22;6820;49.374;8.452;2024-03-07T04:55:42;6.14;99.99
13496;DHT22;6820;49.374;8.452;2024-03-07T04:59:44;6.13;99.99
13496;DHT22;6820;49.374;8.452;2024-03-07T05:03:47;6.13;99.99
13496;DHT22;6820;49.374;8.452;2024-03-07T05:07:48;6.10;99.99
13496;DHT22;6820;49.374;8.452;2024-03-07T05:11:51;6.08;99.99
13496;DHT22;6820;49.374;8.452;2024-03-07T05:15:53;6.05;99.99
13496;DHT22;6820;49.374;8.452;2024-03-07T05:19:55;6.02;99.99
13496;DHT22;6820;49.374;8.452;2024-03-07T05:23:56;5.98;99.99
13496;DHT22;6820;49.374;8.452;2024-03-07T05:27:59;5.93;99.99
13496;DHT22;6820;49.374;8.452;2024-03-07T05:32:20;5.88;99.99
13496;DHT22;6820;49.374;8.452;2024-03-07T05:36:25;5.87;99.99
13496;DHT22;6820;49.374;8.452;2024-03-07T05:40:28;5.83;99.99
13496;DHT22;6820;49.374;8.452;2024-03-07T05:44:30;5.80;99.99
13496;DHT22;6820;49.374;8.452;2024-03-07T05:48:31;5.77;99.99
13496;DHT22;6820;49.374;8.452;2024-03-07T05:52:33;5.75;99.99
13496;DHT22;6820;49.374;8.452;2024-03-07T05:56:35;5.73;99.99
13496;DHT22;6820;49.374;8.452;2024-03-07T06:00:37;5.67;99.99
13496;DHT22;6820;49.374;8.452;2024-03-07T06:04:39;5.65;99.99
13496;DHT22;6820;49.374;8.452;2024-03-07T06:08:40;5.63;99.99
13496;DHT22;6820;49.374;8.452;2024-03-07T06:12:43;5.58;99.99
13496;DHT22;6820;49.374;8.452;2024-03-07T06:17:05;5.52;99.99
13496;DHT22;6820;49.374;8.452;2024-03-07T06:21:07;5.52;99.99
13496;DHT22;6820;49.374;8.452;2024-03-07T06:25:09;5.48;99.99
13496;DHT22;6820;49.374;8.452;2024-03-07T06:29:20;5.47;99.99
13496;DHT22;6820;49.374;8.452;2024-03-07T06:33:22;5.48;99.99
13496;DHT22;6820;49.374;8.452;2024-03-07T06:37:27;5.48;99.99
13496;DHT22;6820;49.374;8.452;2024-03-07T06:41:29;5.52;99.99
13496;DHT22;6820;49.374;8.452;2024-03-07T06:45:31;5.58;99.99
13496;DHT22;6820;49.374;8.452;2024-03-07T06:49:32;5.60;99.99
13496;DHT22;6820;49.374;8.452;2024-03-07T06:53:34;5.62;99.99
13496;DHT22;6820;49.374;8.452;2024-03-07T06:57:36;5.65;99.99
13496;DHT22;6820;49.374;8.452;2024-03-07T07:01:37;5.67;99.99
13496;DHT22;6820;49.374;8.452;2024-03-07T07:05:44;5.70;99.99
13496;DHT22;6820;49.374;8.452;2024-03-07T07:09:46;5.77;99.99
13496;DHT22;6820;49.374;8.452;2024-03-07T07:13:47;5.85;99.99
13496;DHT22;6820;49.374;8.452;2024-03-07T07:17:49;5.95;99.99
13496;DHT22;6820;49.374;8.452;2024-03-07T07:21:51;6.01;99.99
13496;DHT22;6820;49.374;8.452;2024-03-07T07:25:55;6.03;99.99
13496;DHT22;6820;49.374;8.452;2024-03-07T07:29:57;6.11;99.99
13496;DHT22;6820;49.374;8.452;2024-03-07T07:33:59;6.17;99.99
13496;DHT22;6820;49.374;8.452;2024-03-07T07:38:00;6.25;99.99
13496;DHT22;6820;49.374;8.452;2024-03-07T07:42:14;6.39;99.99
13496;DHT22;6820;49.374;8.452;2024-03-07T07:46:17;6.54;99.99
13496;DHT22;6820;49.374;8.452;2024-03-07T07:50:19;6.69;99.99
13496;DHT22;6820;49.374;8.452;2024-03-07T07:54:22;6.86;99.99
13496;DHT22;6820;49.374;8.452;2024-03-07T07:58:26;7.01;99.99
13496;DHT22;6820;49.374;8.452;2024-03-07T08:02:27;7.18;99.99
13496;DHT22;6820;49.374;8.452;2024-03-07T08:06:32;7.32;99.99
13496;DHT22;6820;49.374;8.452;2024-03-07T08:10:40;7.42;99.99
13496;DHT22;6820;49.374;8.452;2024-03-07T08:14:49;7.51;99.99
13496;DHT22;6820;49.374;8.452;2024-03-07T08:18:54;7.55;99.99
13496;DHT22;6820;49.374;8.452;2024-03-07T08:22:59;7.52;99.99
13496;DHT22;6820;49.374;8.452;2024-03-07T08:27:04;7.45;99.99
13496;DHT22;6820;49.374;8.452;2024-03-07T08:31:06;7.45;99.99
13496;DHT22;6820;49.374;8.452;2024-03-07T08:35:11;7.47;99.99
13496;DHT22;6820;49.374;8.452;2024-03-07T08:39:13;7.47;99.99
13496;DHT22;6820;49.374;8.452;2024-03-07T08:43:20;7.50;99.99
13496;DHT22;6820;49.374;8.452;2024-03-07T08:47:22;7.45;99.99
13496;DHT22;6820;49.374;8.452;2024-03-07T08:51:27;7.47;99.99
13496;DHT22;6820;49.374;8.452;2024-03-07T08:55:28;7.52;99.99
13496;DHT22;6820;49.374;8.452;2024-03-07T08:59:30;7.67;99.99
13496;DHT22;6820;49.374;8.452;2024-03-07T09:03:35;7.77;99.99
13496;DHT22;6820;49.374;8.452;2024-03-07T09:07:36;7.94;99.99
13496;DHT22;6820;49.374;8.452;2024-03-07T09:11:38;8.18;99.99
13496;DHT22;6820;49.374;8.452;2024-03-07T09:15:40;8.42;99.99
13496;DHT22;6820;49.374;8.452;2024-03-07T09:19:42;8.37;99.99
13496;DHT22;6820;49.374;8.452;2024-03-07T09:23:43;8.47;99.99
13496;DHT22;6820;49.374;8.452;2024-03-07T09:27:45;8.54;99.99
13496;DHT22;6820;49.374;8.452;2024-03-07T09:31:47;8.58;99.99
13496;DHT22;6820;49.374;8.452;2024-03-07T09:35:50;8.55;99.99
13496;DHT22;6820;49.374;8.452;2024-03-07T09:39:52;8.54;99.99
13496;DHT22;6820;49.374;8.452;2024-03-07T09:43:55;8.55;99.99
13496;DHT22;6820;49.374;8.452;2024-03-07T09:47:57;8.63;99.99
13496;DHT22;6820;49.374;8.452;2024-03-07T09:51:59;8.64;99.99
13496;DHT22;6820;49.374;8.452;2024-03-07T09:56:02;8.70;99.99
13496;DHT22;6820;49.374;8.452;2024-03-07T10:00:06;8.78;99.99
13496;DHT22;6820;49.374;8.452;2024-03-07T10:04:13;8.85;99.99
13496;DHT22;6820;49.374;8.452;2024-03-07T10:08:22;9.10;99.99
13496;DHT22;6820;49.374;8.452;2024-03-07T10:12:25;9.27;99.99
13496;DHT22;6820;49.374;8.452;2024-03-07T10:16:28;9.44;99.99
13496;DHT22;6820;49.374;8.452;2024-03-07T10:20:29;9.49;99.99
13496;DHT22;6820;49.374;8.452;2024-03-07T10:24:31;9.53;99.99
13496;DHT22;6820;49.374;8.452;2024-03-07T10:28:34;9.53;99.99
13496;DHT22;6820;49.374;8.452;2024-03-07T10:32:35;9.48;99.99
13496;DHT22;6820;49.374;8.452;2024-03-07T10:36:38;9.56;99.99
13496;DHT22;6820;49.374;8.452;2024-03-07T10:40:41;9.65;99.99
13496;DHT22;6820;49.374;8.452;2024-03-07T10:44:45;9.74;99.99
13496;DHT22;6820;49.374;8.452;2024-03-07T10:48:48;9.83;99.99
13496;DHT22;6820;49.374;8.452;2024-03-07T10:57:46;9.95;99.99
13496;DHT22;6820;49.374;8.452;2024-03-07T11:06:28;10.01;99.99
13496;DHT22;6820;49.374;8.452;2024-03-07T11:10:30;9.96;99.99
13496;DHT22;6820;49.374;8.452;2024-03-07T11:14:32;9.85;99.99
13496;DHT22;6820;49.374;8.452;2024-03-07T11:18:36;9.83;99.99
13496;DHT22;6820;49.374;8.452;2024-03-07T11:22:38;9.96;99.99
13496;DHT22;6820;49.374;8.452;2024-03-07T11:26:40;10.04;99.99
13496;DHT22;6820;49.374;8.452;2024-03-07T11:30:42;10.13;99.99
13496;DHT22;6820;49.374;8.452;2024-03-07T11:34:44;10.16;99.99
13496;DHT22;6820;49.374;8.452;2024-03-07T11:38:49;10.24;99.99
13496;DHT22;6820;49.374;8.452;2024-03-07T11:42:52;10.35;99.99
13496;DHT22;6820;49.374;8.452;2024-03-07T11:46:55;10.46;99.99
13496;DHT22;6820;49.374;8.452;2024-03-07T11:50:56;10.52;99.99
13496;DHT22;6820;49.374;8.452;2024-03-07T11:54:58;10.62;99.99
13496;DHT22;6820;49.374;8.452;2024-03-07T11:59:06;10.70;99.99
13496;DHT22;6820;49.374;8.452;2024-03-07T12:03:17;10.86;99.99
13496;DHT22;6820;49.374;8.452;2024-03-07T12:07:23;10.99;99.99
13496;DHT22;6820;49.374;8.452;2024-03-07T12:11:24;11.19;99.99
13496;DHT22;6820;49.374;8.452;2024-03-07T12:15:27;11.41;99.99
13496;DHT22;6820;49.374;8.452;2024-03-07T12:19:30;11.53;99.99
13496;DHT22;6820;49.374;8.452;2024-03-07T12:23:37;11.57;99.99
13496;DHT22;6820;49.374;8.452;2024-03-07T12:27:40;11.62;99.99
13496;DHT22;6820;49.374;8.452;2024-03-07T12:31:41;11.69;99.99
13496;DHT22;6820;49.374;8.452;2024-03-07T12:35:43;11.75;99.99
13496;DHT22;6820;49.374;8.452;2024-03-07T12:39:46;11.75;99.99
13496;DHT22;6820;49.374;8.452;2024-03-07T12:43:48;11.77;99.99
13496;DHT22;6820;49.374;8.452;2024-03-07T12:47:53;11.81;99.99
13496;DHT22;6820;49.374;8.452;2024-03-07T12:51:56;11.77;99.99
13496;DHT22;6820;49.374;8.452;2024-03-07T12:56:00;11.79;99.99
13496;DHT22;6820;49.374;8.452;2024-03-07T13:00:04;11.79;99.99
13496;DHT22;6820;49.374;8.452;2024-03-07T13:04:18;11.82;99.99
13496;DHT22;6820;49.374;8.452;2024-03-07T13:08:19;11.81;99.99
13496;DHT22;6820;49.374;8.452;2024-03-07T13:12:26;11.81;99.99
13496;DHT22;6820;49.374;8.452;2024-03-07T13:16:31;11.90;99.99
13496;DHT22;6820;49.374;8.452;2024-03-07T13:20:34;11.84;99.99
13496;DHT22;6820;49.374;8.452;2024-03-07T13:24:36;11.81;99.99
13496;DHT22;6820;49.374;8.452;2024-03-07T13:28:38;11.75;99.99
13496;DHT22;6820;49.374;8.452;2024-03-07T13:32:39;11.70;99.99
13496;DHT22;6820;49.374;8.452;2024-03-07T13:36:44;11.66;99.99
13496;DHT22;6820;49.374;8.452;2024-03-07T13:40:46;11.53;99.99
13496;DHT22;6820;49.374;8.452;2024-03-07T13:44:48;11.38;99.99
13496;DHT22;6820;49.374;8.452;2024-03-07T13:48:49;11.28;99.99
13496;DHT22;6820;49.374;8.452;2024-03-07T13:52:53;11.24;99.99
13496;DHT22;6820;49.374;8.452;2024-03-07T14:01:34;11.08;99.99
13496;DHT22;6820;49.374;8.452;2024-03-07T14:15:43;11.11;99.99
13496;DHT22;6820;49.374;8.452;2024-03-07T14:33:14;11.12;99.99
13496;DHT22;6820;49.374;8.452;2024-03-07T14:37:25;11.11;99.99
13496;DHT22;6820;49.374;8.452;2024-03-07T14:41:49;11.11;99.99
13496;DHT22;6820;49.374;8.452;2024-03-07T14:45:53;11.08;99.99
13496;DHT22;6820;49.374;8.452;2024-03-07T14:49:56;11.09;99.99
13496;DHT22;6820;49.374;8.452;2024-03-07T14:53:58;11.13;99.99
13496;DHT22;6820;49.374;8.452;2024-03-07T14:58:00;11.19;99.99
13496;DHT22;6820;49.374;8.452;2024-03-07T15:02:02;11.23;99.99
13496;DHT22;6820;49.374;8.452;2024-03-07T15:06:05;11.24;99.99
13496;DHT22;6820;49.374;8.452;2024-03-07T15:10:13;11.31;99.99
13496;DHT22;6820;49.374;8.452;2024-03-07T15:14:19;11.36;99.99
13496;DHT22;6820;49.374;8.452;2024-03-07T15:18:37;11.35;99.99
13496;DHT22;6820;49.374;8.452;2024-03-07T15:22:41;11.33;99.99
13496;DHT22;6820;49.374;8.452;2024-03-07T15:26:47;11.35;99.99
13496;DHT22;6820;49.374;8.452;2024-03-07T15:30:51;11.23;99.99
13496;DHT22;6820;49.374;8.452;2024-03-07T15:34:53;11.19;99.99
13496;DHT22;6820;49.374;8.452;2024-03-07T15:38:55;11.12;99.99
13496;DHT22;6820;49.374;8.452;2024-03-07T15:42:58;11.11;99.99
13496;DHT22;6820;49.374;8.452;2024-03-07T15:47:02;11.08;99.99
13496;DHT22;6820;49.374;8.452;2024-03-07T15:51:05;11.03;99.99
13496;DHT22;6820;49.374;8.452;2024-03-07T15:55:09;10.99;99.99
13496;DHT22;6820;49.374;8.452;2024-03-07T15:59:15;10.90;99.99
13496;DHT22;6820;49.374;8.452;2024-03-07T16:03:17;10.84;99.99
13496;DHT22;6820;49.374;8.452;2024-03-07T16:07:19;10.80;99.99
13496;DHT22;6820;49.374;8.452;2024-03-07T16:11:21;10.75;99.99
13496;DHT22;6820;49.374;8.452;2024-03-07T16:15:26;10.69;99.99
13496;DHT22;6820;49.374;8.452;2024-03-07T16:19:41;10.65;99.99
13496;DHT22;6820;49.374;8.452;2024-03-07T16:23:43;10.62;99.99
13496;DHT22;6820;49.374;8.452;2024-03-07T16:27:45;10.57;99.99
13496;DHT22;6820;49.374;8.452;2024-03-07T16:31:49;10.57;99.99
13496;DHT22;6820;49.374;8.452;2024-03-07T16:35:52;10.54;99.99
13496;DHT22;6820;49.374;8.452;2024-03-07T16:39:54;10.51;99.99
13496;DHT22;6820;49.374;8.452;2024-03-07T16:43:55;10.47;99.99
13496;DHT22;6820;49.374;8.452;2024-03-07T16:47:58;10.43;99.99
13496;DHT22;6820;49.374;8.452;2024-03-07T16:52:02;10.39;99.99
13496;DHT22;6820;49.374;8.452;2024-03-07T16:56:04;10.39;99.99
13496;DHT22;6820;49.374;8.452;2024-03-07T17:00:09;10.47;99.99
13496;DHT22;6820;49.374;8.452;2024-03-07T17:04:18;10.51;99.99
13496;DHT22;6820;49.374;8.452;2024-03-07T17:08:20;10.51;99.99
13496;DHT22;6820;49.374;8.452;2024-03-07T17:12:24;10.49;99.99
13496;DHT22;6820;49.374;8.452;2024-03-07T17:16:26;10.46;99.99
13496;DHT22;6820;49.374;8.452;2024-03-07T17:20:28;10.42;99.99
13496;DHT22;6820;49.374;8.452;2024-03-07T17:24:30;10.39;99.99
13496;DHT22;6820;49.374;8.452;2024-03-07T17:28:32;10.36;99.99
13496;DHT22;6820;49.374;8.452;2024-03-07T17:32:35;10.34;99.99
13496;DHT22;6820;49.374;8.452;2024-03-07T17:36:39;10.31;99.99
13496;DHT22;6820;49.374;8.452;2024-03-07T17:40:41;10.32;99.99
13496;DHT22;6820;49.374;8.452;2024-03-07T17:44:44;10.28;99.99
13496;DHT22;6820;49.374;8.452;2024-03-07T17:48:46;10.24;99.99
13496;DHT22;6820;49.374;8.452;2024-03-07T17:52:50;10.18;99.99
13496;DHT22;6820;49.374;8.452;2024-03-07T17:56:53;10.14;99.99
13496;DHT22;6820;49.374;8.452;2024-03-07T18:00:55;10.11;99.99
13496;DHT22;6820;49.374;8.452;2024-03-07T18:04:56;10.11;99.99
13496;DHT22;6820;49.374;8.452;2024-03-07T18:08:58;10.09;99.99
13496;DHT22;6820;49.374;8.452;2024-03-07T18:13:02;10.07;99.99
13496;DHT22;6820;49.374;8.452;2024-03-07T18:17:05;10.04;99.99
13496;DHT22;6820;49.374;8.452;2024-03-07T18:21:07;10.02;99.99
13496;DHT22;6820;49.374;8.452;2024-03-07T18:25:14;9.99;99.99
13496;DHT22;6820;49.374;8.452;2024-03-07T18:29:21;9.95;99.99
13496;DHT22;6820;49.374;8.452;2024-03-07T18:33:23;9.93;99.99
13496;DHT22;6820;49.374;8.452;2024-03-07T18:37:25;9.91;99.99
13496;DHT22;6820;49.374;8.452;2024-03-07T18:41:27;9.88;99.99
13496;DHT22;6820;49.374;8.452;2024-03-07T18:45:31;9.86;99.99
13496;DHT22;6820;49.374;8.452;2024-03-07T18:49:36;9.81;99.99
13496;DHT22;6820;49.374;8.452;2024-03-07T18:53:39;9.83;99.99
13496;DHT22;6820;49.374;8.452;2024-03-07T18:57:41;9.81;99.99
13496;DHT22;6820;49.374;8.452;2024-03-07T19:01:43;9.80;99.99
13496;DHT22;6820;49.374;8.452;2024-03-07T19:05:45;9.75;99.99
13496;DHT22;6820;49.374;8.452;2024-03-07T19:09:48;9.70;99.99
13496;DHT22;6820;49.374;8.452;2024-03-07T19:13:49;9.65;99.99
13496;DHT22;6820;49.374;8.452;2024-03-07T19:17:54;9.62;99.99
13496;DHT22;6820;49.374;8.452;2024-03-07T19:21:57;9.59;99.99
13496;DHT22;6820;49.374;8.452;2024-03-07T19:26:00;9.59;99.99
13496;DHT22;6820;49.374;8.452;2024-03-07T19:30:05;9.56;99.99
13496;DHT22;6820;49.374;8.452;2024-03-07T19:34:07;9.53;99.99
13496;DHT22;6820;49.374;8.452;2024-03-07T19:38:10;9.52;99.99
13496;DHT22;6820;49.374;8.452;2024-03-07T19:42:12;9.50;99.99
13496;DHT22;6820;49.374;8.452;2024-03-07T19:46:14;9.49;99.99
13496;DHT22;6820;49.374;8.452;2024-03-07T19:50:16;9.49;99.99
13496;DHT22;6820;49.374;8.452;2024-03-07T19:54:17;9.45;99.99
13496;DHT22;6820;49.374;8.452;2024-03-07T19:58:19;9.44;99.99
13496;DHT22;6820;49.374;8.452;2024-03-07T20:02:26;9.42;99.99
13496;DHT22;6820;49.374;8.452;2024-03-07T20:06:31;9.38;99.99
13496;DHT22;6820;49.374;8.452;2024-03-07T20:10:33;9.35;99.99
13496;DHT22;6820;49.374;8.452;2024-03-07T20:14:35;9.32;99.99
13496;DHT22;6820;49.374;8.452;2024-03-07T20:18:40;9.27;99.99
13496;DHT22;6820;49.374;8.452;2024-03-07T20:22:44;9.27;99.99
13496;DHT22;6820;49.374;8.452;2024-03-07T20:26:49;9.27;99.99
13496;DHT22;6820;49.374;8.452;2024-03-07T20:30:51;9.24;99.99
13496;DHT22;6820;49.374;8.452;2024-03-07T20:34:53;9.23;99.99
13496;DHT22;6820;49.374;8.452;2024-03-07T20:38:57;9.20;99.99
13496;DHT22;6820;49.374;8.452;2024-03-07T20:42:59;9.19;99.99
13496;DHT22;6820;49.374;8.452;2024-03-07T20:47:01;9.20;99.99
13496;DHT22;6820;49.374;8.452;2024-03-07T20:51:02;9.19;99.99
13496;DHT22;6820;49.374;8.452;2024-03-07T20:55:05;9.16;99.99
13496;DHT22;6820;49.374;8.452;2024-03-07T20:59:16;9.12;99.99
13496;DHT22;6820;49.374;8.452;2024-03-07T21:03:19;9.12;99.99
13496;DHT22;6820;49.374;8.452;2024-03-07T21:07:25;9.12;99.99
13496;DHT22;6820;49.374;8.452;2024-03-07T21:11:26;9.08;99.99
13496;DHT22;6820;49.374;8.452;2024-03-07T21:15:29;9.08;99.99
13496;DHT22;6820;49.374;8.452;2024-03-07T21:19:31;9.03;99.99
13496;DHT22;6820;49.374;8.452;2024-03-07T21:23:33;9.03;99.99
13496;DHT22;6820;49.374;8.452;2024-03-07T21:27:40;9.00;99.99
13496;DHT22;6820;49.374;8.452;2024-03-07T21:31:42;8.97;99.99
13496;DHT22;6820;49.374;8.452;2024-03-07T21:35:44;8.97;99.99
13496;DHT22;6820;49.374;8.452;2024-03-07T21:39:46;8.93;99.99
13496;DHT22;6820;49.374;8.452;2024-03-07T21:43:50;8.93;99.99
13496;DHT22;6820;49.374;8.452;2024-03-07T21:47:52;8.89;99.99
13496;DHT22;6820;49.374;8.452;2024-03-07T21:51:54;8.86;99.99
13496;DHT22;6820;49.374;8.452;2024-03-07T21:55:57;8.86;99.99
13496;DHT22;6820;49.374;8.452;2024-03-07T22:00:01;8.83;99.99
13496;DHT22;6820;49.374;8.452;2024-03-07T22:04:07;8.80;99.99
13496;DHT22;6820;49.374;8.452;2024-03-07T22:08:10;8.79;99.99
13496;DHT22;6820;49.374;8.452;2024-03-07T22:12:14;8.78;99.99
13496;DHT22;6820;49.374;8.452;2024-03-07T22:16:20;8.78;99.99
13496;DHT22;6820;49.374;8.452;2024-03-07T22:20:22;8.76;99.99
13496;DHT22;6820;49.374;8.452;2024-03-07T22:24:26;8.68;99.99
13496;DHT22;6820;49.374;8.452;2024-03-07T22:28:27;8.68;99.99
13496;DHT22;6820;49.374;8.452;2024-03-07T22:32:29;8.68;99.99
13496;DHT22;6820;49.374;8.452;2024-03-07T22:36:32;8.65;99.99
13496;DHT22;6820;49.374;8.452;2024-03-07T22:40:35;8.65;99.99
13496;DHT22;6820;49.374;8.452;2024-03-07T22:44:38;8.63;99.99
13496;DHT22;6820;49.374;8.452;2024-03-07T22:48:40;8.61;99.99
13496;DHT22;6820;49.374;8.452;2024-03-07T22:52:42;8.55;99.99
13496;DHT22;6820;49.374;8.452;2024-03-07T22:56:44;8.52;99.99
13496;DHT22;6820;49.374;8.452;2024-03-07T23:00:46;8.52;99.99
13496;DHT22;6820;49.374;8.452;2024-03-07T23:04:48;8.54;99.99
13496;DHT22;6820;49.374;8.452;2024-03-07T23:08:50;8.50;99.99
13496;DHT22;6820;49.374;8.452;2024-03-07T23:12:52;8.43;99.99
13496;DHT22;6820;49.374;8.452;2024-03-07T23:16:55;8.31;99.99
13496;DHT22;6820;49.374;8.452;2024-03-07T23:20:57;8.27;99.99
13496;DHT22;6820;49.374;8.452;2024-03-07T23:24:58;8.17;99.99
13496;DHT22;6820;49.374;8.452;2024-03-07T23:29:01;8.09;99.99
13496;DHT22;6820;49.374;8.452;2024-03-07T23:33:03;8.02;99.99
13496;DHT22;6820;49.374;8.452;2024-03-07T23:37:05;7.94;99.99
13496;DHT22;6820;49.374;8.452;2024-03-07T23:41:07;7.84;99.99
13496;DHT22;6820;49.374;8.452;2024-03-07T23:45:12;7.82;99.99
13496;DHT22;6820;49.374;8.452;2024-03-07T23:49:14;7.74;99.99
13496;DHT22;6820;49.374;8.452;2024-03-07T23:53:16;7.71;99.99
13496;DHT22;6820;49.374;8.452;2024-03-07T23:57:18;7.66;99.99
